Time;durP1;ratioP1;P1;durP2;ratioP2;P2;SDS_P1;SDS_P2;PMS_P1;PMS_P2;Temp;Humidity;BMP_temperature;BMP_pressure;BME280_temperature;BME280_humidity;BME280_pressure;Samples;Min_cycle;Max_cycle;Signal;HPM_P1;HPM_P2
2022/09/10 00:01:20;;;;;;;5.80;2.22;;;;;;;-140.72;100.00;52695.25;5097338;28;20460;-66
2022/09/10 00:03:47;;;;;;;7.55;2.65;;;;;;;-140.72;100.00;52727.72;5098753;28;20032;-67
2022/09/10 00:06:13;;;;;;;3.92;2.00;;;;;;;-140.72;100.00;52719.59;5094082;28;20376;-67
2022/09/10 00:08:39;;;;;;;3.78;2.13;;;;;;;-140.72;100.00;52727.72;5095596;28;20020;-67
2022/09/10 00:11:07;;;;;;;3.90;1.95;;;;;;;-140.72;100.00;52723.66;5094409;28;20499;-67
2022/09/10 00:13:33;;;;;;;3.13;1.90;;;;;;;-140.72;100.00;52711.47;5099328;27;20465;-66
2022/09/10 00:16:01;;;;;;;2.75;2.00;;;;;;;-140.72;100.00;52745.97;5092782;27;20039;-67
2022/09/10 00:18:28;;;;;;;5.68;1.60;;;;;;;-140.72;100.00;52741.91;5104267;27;20020;-67
2022/09/10 00:20:55;;;;;;;4.15;1.95;;;;;;;-140.72;100.00;52743.94;5094815;28;20039;-67
2022/09/10 00:23:24;;;;;;;2.42;1.25;;;;;;;-140.72;100.00;52739.88;5093474;27;20024;-67
2022/09/10 00:25:53;;;;;;;1.67;1.37;;;;;;;-140.72;100.00;52705.38;5098315;28;20019;-66
2022/09/10 00:28:21;;;;;;;3.43;1.77;;;;;;;-140.72;100.00;52707.41;5100024;27;20027;-67
2022/09/10 00:30:48;;;;;;;2.72;0.90;;;;;;;-140.72;100.00;52758.16;5095156;28;20047;-67
2022/09/10 00:33:16;;;;;;;2.30;1.17;;;;;;;-140.72;100.00;52717.56;5104024;28;20039;-66
2022/09/10 00:35:42;;;;;;;1.52;0.52;;;;;;;-140.72;100.00;52723.66;5095590;27;20032;-66
2022/09/10 00:38:09;;;;;;;1.55;1.02;;;;;;;-140.72;100.00;52707.41;5097158;27;20039;-66
2022/09/10 00:40:34;;;;;;;3.97;1.10;;;;;;;-140.72;100.00;52741.91;5104046;27;20058;-66
2022/09/10 00:43:00;;;;;;;2.13;0.77;;;;;;;-140.72;100.00;52741.91;5098583;27;20056;-66
2022/09/10 00:45:28;;;;;;;1.45;0.60;;;;;;;-140.72;100.00;52731.75;5097679;27;20028;-67
2022/09/10 00:47:59;;;;;;;0.40;0.30;;;;;;;-140.72;100.00;52672.91;5102344;28;20166;-66
2022/09/10 00:50:28;;;;;;;1.38;0.63;;;;;;;-140.72;100.00;52727.72;5103611;28;20051;-66
2022/09/10 00:52:57;;;;;;;2.47;1.08;;;;;;;-140.72;100.00;52731.75;5098144;27;20097;-65
2022/09/10 00:55:22;;;;;;;1.48;0.77;;;;;;;-140.72;100.00;52754.09;5099049;28;20404;-65
2022/09/10 00:57:53;;;;;;;1.02;0.47;;;;;;;-140.72;100.00;52748.00;5096410;27;20024;-66
2022/09/10 01:00:19;;;;;;;2.10;1.50;;;;;;;-140.72;100.00;52760.19;5093141;28;20031;-65
2022/09/10 01:02:44;;;;;;;2.45;1.33;;;;;;;-140.72;100.00;52723.66;5099039;27;20141;-65
2022/09/10 01:05:11;;;;;;;1.85;1.52;;;;;;;-140.72;100.00;52737.84;5091321;28;20020;-65
2022/09/10 01:07:37;;;;;;;5.65;1.23;;;;;;;-140.72;100.00;52731.75;5099068;27;20023;-65
2022/09/10 01:10:07;;;;;;;2.95;1.42;;;;;;;-140.72;100.00;52764.25;5093727;28;20429;-65
2022/09/10 01:12:35;;;;;;;4.30;1.98;;;;;;;-140.72;100.00;52739.88;5094390;27;20521;-67
2022/09/10 01:15:17;;;;;;;5.00;2.95;;;;;;;-140.72;100.00;52727.72;5094002;28;20024;-67
2022/09/10 01:18:09;;;;;;;3.70;2.42;;;;;;;-140.72;100.00;52782.50;5094169;28;20027;-67
2022/09/10 01:20:55;;;;;;;5.85;2.40;;;;;;;-140.72;100.00;52723.66;5099931;27;20020;-70
2022/09/10 01:23:46;;;;;;;4.47;2.40;;;;;;;-140.72;100.00;52743.94;5093757;27;20027;-68
2022/09/10 01:26:18;;;;;;;3.92;2.55;;;;;;;-140.72;100.00;52719.59;5097367;28;20035;-68
2022/09/10 01:29:09;;;;;;;5.57;2.55;;;;;;;-140.72;100.00;52715.53;5091735;28;20020;-67
2022/09/10 01:31:49;;;;;;;3.17;2.25;;;;;;;-140.72;100.00;52739.88;5084208;28;20031;-68
2022/09/10 01:34:26;;;;;;;3.78;2.47;;;;;;;-140.72;100.00;52735.81;5092557;28;20023;-66
2022/09/10 01:36:57;;;;;;;4.05;2.22;;;;;;;-140.72;100.00;52743.94;5095014;28;20020;-67
2022/09/10 01:39:23;;;;;;;4.78;2.50;;;;;;;-140.72;100.00;52709.44;5098180;28;20038;-66
2022/09/10 01:41:51;;;;;;;5.50;3.00;;;;;;;-140.72;100.00;52760.19;5093605;28;20112;-67
2022/09/10 01:44:46;;;;;;;9.02;3.00;;;;;;;-140.72;100.00;52743.94;5094019;27;20063;-66
2022/09/10 01:47:31;;;;;;;4.50;2.20;;;;;;;-140.72;100.00;52731.75;5093081;28;20048;-67
2022/09/10 01:50:10;;;;;;;4.53;1.75;;;;;;;-140.72;100.00;52739.88;5094840;27;20044;-67
2022/09/10 01:52:45;;;;;;;5.40;2.42;;;;;;;-140.72;100.00;52723.66;5092217;28;20019;-67
2022/09/10 01:55:41;;;;;;;2.30;1.80;;;;;;;-140.72;100.00;52711.47;5094098;27;20016;-67
2022/09/10 01:58:24;;;;;;;2.83;1.83;;;;;;;-140.72;100.00;52754.09;5095405;27;20016;-66
2022/09/10 02:01:01;;;;;;;3.78;1.85;;;;;;;-140.72;100.00;52735.81;5093436;28;20066;-66
2022/09/10 02:03:27;;;;;;;4.57;2.78;;;;;;;-140.72;100.00;52731.75;5097062;27;20423;-66
2022/09/10 02:05:55;;;;;;;8.73;2.70;;;;;;;-140.72;100.00;52693.22;5094344;28;20039;-67
2022/09/10 02:08:29;;;;;;;3.72;2.55;;;;;;;-140.72;100.00;52725.69;5095329;28;20047;-67
2022/09/10 02:11:00;;;;;;;4.80;3.10;;;;;;;-140.72;100.00;52697.28;5097478;28;20529;-67
2022/09/10 02:13:28;;;;;;;6.50;3.10;;;;;;;-140.72;100.00;52731.75;5091381;28;20056;-68
2022/09/10 02:15:55;;;;;;;6.13;3.05;;;;;;;-140.72;100.00;52727.72;5094831;28;20280;-67
2022/09/10 02:18:22;;;;;;;3.88;2.38;;;;;;;-140.72;100.00;52735.81;5096963;28;20372;-68
2022/09/10 02:20:50;;;;;;;3.63;1.95;;;;;;;-140.72;100.00;52725.69;5091179;28;20054;-68
2022/09/10 02:23:20;;;;;;;3.85;2.38;;;;;;;-140.72;100.00;52766.25;5097128;27;20019;-68
2022/09/10 02:25:48;;;;;;;5.88;2.63;;;;;;;-140.72;100.00;52735.81;5096507;28;20024;-67
2022/09/10 02:28:13;;;;;;;5.68;2.80;;;;;;;-140.72;100.00;52729.75;5094399;27;20015;-67
2022/09/10 02:30:39;;;;;;;6.13;2.72;;;;;;;-140.72;100.00;52717.56;5095355;28;20029;-69
2022/09/10 02:33:05;;;;;;;4.05;2.78;;;;;;;-140.72;100.00;52723.66;5088961;27;20106;-68
2022/09/10 02:35:30;;;;;;;4.25;2.63;;;;;;;-140.72;100.00;52745.97;5093469;28;20053;-67
2022/09/10 02:37:57;;;;;;;4.03;2.65;;;;;;;-140.72;100.00;52695.25;5093628;28;20037;-67
2022/09/10 02:40:23;;;;;;;2.47;1.95;;;;;;;-140.72;100.00;52754.09;5091236;28;20028;-67
2022/09/10 02:42:48;;;;;;;9.00;4.03;;;;;;;-140.72;100.00;52758.16;5092226;28;20020;-74
2022/09/10 02:45:14;;;;;;;3.28;2.60;;;;;;;-140.72;100.00;52748.00;5093430;28;20076;-70
2022/09/10 02:47:40;;;;;;;4.18;2.80;;;;;;;-140.72;100.00;52713.50;5094288;27;20062;-75
2022/09/10 02:50:06;;;;;;;5.32;3.83;;;;;;;-140.72;100.00;52762.22;5097115;28;20423;-72
2022/09/10 02:52:32;;;;;;;6.07;3.72;;;;;;;-140.72;100.00;52758.16;5095382;28;20042;-70
2022/09/10 02:54:58;;;;;;;4.45;3.38;;;;;;;-140.72;100.00;52729.75;5090356;28;20104;-70
2022/09/10 02:57:25;;;;;;;5.03;3.63;;;;;;;-140.72;100.00;52729.75;5095069;28;20028;-71
2022/09/10 02:59:51;;;;;;;6.53;3.70;;;;;;;-140.72;100.00;52711.47;5094032;28;20054;-71
2022/09/10 03:02:17;;;;;;;4.35;3.25;;;;;;;-140.72;100.00;52721.63;5090793;28;20020;-70
2022/09/10 03:04:42;;;;;;;4.78;3.67;;;;;;;-140.72;100.00;52731.75;5092887;28;20038;-71
2022/09/10 03:07:08;;;;;;;4.78;3.53;;;;;;;-140.72;100.00;52766.25;5097221;28;20023;-71
2022/09/10 03:09:34;;;;;;;7.78;4.05;;;;;;;-140.72;100.00;52733.78;5097190;28;20023;-71
2022/09/10 03:12:00;;;;;;;4.75;3.80;;;;;;;-140.72;100.00;52745.97;5095065;28;20453;-72
2022/09/10 03:14:27;;;;;;;6.85;4.03;;;;;;;-140.72;100.00;52723.66;5097412;28;20035;-73
2022/09/10 03:16:52;;;;;;;4.70;3.67;;;;;;;-140.72;100.00;52764.25;5104587;28;21065;-72
2022/09/10 03:19:18;;;;;;;4.78;4.03;;;;;;;-140.72;100.00;52729.75;5097302;28;20035;-71
2022/09/10 03:21:46;;;;;;;9.45;4.65;;;;;;;-140.72;100.00;52745.97;5096148;28;20020;-68
2022/09/10 03:24:11;;;;;;;7.50;3.65;;;;;;;-140.72;100.00;52719.59;5094915;28;20385;-70
2022/09/10 03:26:37;;;;;;;7.47;3.08;;;;;;;-140.72;100.00;52737.84;5095201;28;20081;-71
2022/09/10 03:29:03;;;;;;;4.93;3.47;;;;;;;-140.72;100.00;52743.94;5098070;28;20241;-67
2022/09/10 03:31:28;;;;;;;4.95;3.00;;;;;;;-140.72;100.00;52772.34;5089545;28;20098;-73
2022/09/10 03:33:54;;;;;;;5.85;2.63;;;;;;;-140.72;100.00;52760.19;5093602;28;20570;-72
2022/09/10 03:36:21;;;;;;;7.65;2.83;;;;;;;-140.72;100.00;52737.84;5094306;28;20020;-71
2022/09/10 03:38:47;;;;;;;7.28;3.20;;;;;;;-140.72;100.00;52739.88;5097842;28;20043;-71
2022/09/10 03:41:12;;;;;;;4.30;1.85;;;;;;;-140.72;100.00;52772.34;5096139;28;20062;-69
2022/09/10 03:43:37;;;;;;;8.40;2.63;;;;;;;-140.72;100.00;52707.41;5091859;28;20031;-73
2022/09/10 03:46:04;;;;;;;5.10;2.20;;;;;;;-140.72;100.00;52756.13;5091346;28;20012;-71
2022/09/10 03:48:29;;;;;;;3.85;2.35;;;;;;;-140.72;100.00;52750.03;5097413;28;20477;-71
2022/09/10 03:50:55;;;;;;;2.95;1.95;;;;;;;-140.72;100.00;52760.19;5095398;27;20027;-77
2022/09/10 03:53:21;;;;;;;7.55;1.65;;;;;;;-140.72;100.00;52727.72;5099048;27;20027;-72
2022/09/10 03:55:48;;;;;;;5.32;1.95;;;;;;;-140.72;100.00;52735.81;5092997;27;20442;-70
2022/09/10 03:58:14;;;;;;;2.85;1.17;;;;;;;-140.72;100.00;52721.63;5099289;28;20422;-70
2022/09/10 04:00:41;;;;;;;2.65;1.30;;;;;;;-140.72;100.00;52739.88;5096750;28;20593;-70
2022/09/10 04:03:07;;;;;;;2.50;1.05;;;;;;;-140.72;100.00;52731.75;5100030;27;20026;-70
2022/09/10 04:05:33;;;;;;;2.33;1.15;;;;;;;-140.72;100.00;52752.06;5093457;28;20016;-70
2022/09/10 04:08:01;;;;;;;4.32;1.27;;;;;;;-140.72;100.00;52784.53;5096432;27;20389;-69
2022/09/10 04:10:28;;;;;;;1.33;0.90;;;;;;;-140.72;100.00;52758.16;5101669;28;20107;-69
2022/09/10 04:12:53;;;;;;;4.47;1.70;;;;;;;-140.72;100.00;52743.94;5099217;27;20039;-69
2022/09/10 04:15:20;;;;;;;6.15;1.88;;;;;;;-140.72;100.00;52721.63;5101719;27;20031;-67
2022/09/10 04:17:50;;;;;;;8.70;1.20;;;;;;;-140.72;100.00;52719.59;5098020;27;20034;-67
2022/09/10 04:20:15;;;;;;;2.15;1.45;;;;;;;-140.72;100.00;52723.66;5081770;28;20468;-67
2022/09/10 04:22:41;;;;;;;1.38;0.98;;;;;;;-140.72;100.00;52741.91;5099088;28;20100;-66
2022/09/10 04:25:08;;;;;;;1.83;1.13;;;;;;;-140.72;100.00;52743.94;5103119;28;20161;-66
2022/09/10 04:27:33;;;;;;;2.20;1.25;;;;;;;-140.72;100.00;52764.25;5096082;28;20112;-67
2022/09/10 04:29:58;;;;;;;7.00;1.73;;;;;;;-140.72;100.00;52780.47;5098546;27;20459;-67
2022/09/10 04:32:24;;;;;;;1.95;1.05;;;;;;;-140.72;100.00;52748.00;5099267;27;20851;-64
2022/09/10 04:34:50;;;;;;;3.60;1.00;;;;;;;-140.72;100.00;52733.78;5095877;28;20112;-65
2022/09/10 04:37:15;;;;;;;3.38;1.65;;;;;;;-140.72;100.00;52762.22;5092641;27;20032;-66
2022/09/10 04:39:42;;;;;;;3.05;1.15;;;;;;;-140.72;100.00;52756.13;5099759;28;20069;-66
2022/09/10 04:42:08;;;;;;;1.63;1.17;;;;;;;-140.72;100.00;52748.00;5098065;28;20381;-66
2022/09/10 04:44:34;;;;;;;3.80;1.00;;;;;;;-140.72;100.00;52741.91;5097950;27;20024;-66
2022/09/10 04:46:59;;;;;;;1.52;1.02;;;;;;;-140.72;100.00;52743.94;5096738;27;20276;-67
2022/09/10 04:49:24;;;;;;;2.58;1.73;;;;;;;-140.72;100.00;52719.59;5103152;27;20462;-67
2022/09/10 04:51:50;;;;;;;4.07;1.33;;;;;;;-140.72;100.00;52764.25;5095716;27;20104;-66
2022/09/10 04:54:15;;;;;;;4.38;1.75;;;;;;;-140.72;100.00;52719.59;5102960;28;20024;-66
2022/09/10 04:56:42;;;;;;;2.38;1.30;;;;;;;-140.72;100.00;52748.00;5092731;28;20049;-67
2022/09/10 04:59:09;;;;;;;5.85;2.13;;;;;;;-140.72;100.00;52715.53;5097622;28;20050;-66
2022/09/10 05:01:34;;;;;;;3.10;1.27;;;;;;;-140.72;100.00;52743.94;5098103;27;20111;-66
2022/09/10 05:04:02;;;;;;;4.10;1.77;;;;;;;-140.72;100.00;52756.13;5093801;28;20272;-67
2022/09/10 05:06:27;;;;;;;4.88;1.83;;;;;;;-140.72;100.00;52758.16;5091686;27;20036;-67
2022/09/10 05:08:53;;;;;;;5.80;1.92;;;;;;;-140.72;100.00;52762.22;5098679;27;20047;-64
2022/09/10 05:11:19;;;;;;;1.88;0.93;;;;;;;-140.72;100.00;52756.13;5095962;27;20050;-64
2022/09/10 05:13:45;;;;;;;4.85;1.92;;;;;;;-140.72;100.00;52764.25;5100199;27;20059;-64
2022/09/10 05:16:11;;;;;;;2.22;1.50;;;;;;;-140.72;100.00;52713.50;5104432;27;20027;-64
2022/09/10 05:18:36;;;;;;;5.40;2.03;;;;;;;-140.72;100.00;52739.88;5103868;27;20472;-64
2022/09/10 05:21:02;;;;;;;8.55;2.10;;;;;;;-140.72;100.00;52715.53;5097725;27;20024;-64
2022/09/10 05:23:28;;;;;;;6.38;1.60;;;;;;;-140.72;100.00;52725.69;5095876;27;20028;-64
2022/09/10 05:25:55;;;;;;;4.15;2.05;;;;;;;-140.72;100.00;52709.44;5091655;28;20109;-65
2022/09/10 05:28:21;;;;;;;9.45;2.28;;;;;;;-140.72;100.00;52731.75;5098049;28;20031;-64
2022/09/10 05:30:47;;;;;;;2.88;1.83;;;;;;;-140.72;100.00;52739.88;5094526;28;20113;-64
2022/09/10 05:33:13;;;;;;;4.72;2.10;;;;;;;-140.72;100.00;52768.28;5095239;28;20026;-64
2022/09/10 05:35:39;;;;;;;2.67;1.35;;;;;;;-140.72;100.00;52735.81;5098521;27;20442;-64
2022/09/10 05:38:04;;;;;;;3.42;1.85;;;;;;;-140.72;100.00;52723.66;5096552;28;20039;-64
2022/09/10 05:40:34;;;;;;;4.15;2.30;;;;;;;-140.72;100.00;52745.97;5097674;27;20027;-64
2022/09/10 05:42:59;;;;;;;5.40;1.85;;;;;;;-140.72;100.00;52741.91;5100737;28;20112;-64
2022/09/10 05:45:27;;;;;;;3.13;1.38;;;;;;;-140.72;100.00;52768.28;5098824;28;20491;-64
2022/09/10 05:47:52;;;;;;;2.92;1.85;;;;;;;-140.72;100.00;52743.94;5100264;27;20410;-64
2022/09/10 05:50:18;;;;;;;4.70;1.75;;;;;;;-140.72;100.00;52784.53;5099213;27;20031;-64
2022/09/10 05:52:44;;;;;;;4.80;1.88;;;;;;;-140.72;100.00;52731.75;5095942;28;20784;-64
2022/09/10 05:55:11;;;;;;;3.42;2.42;;;;;;;-140.72;100.00;52725.69;5090843;27;20012;-64
2022/09/10 05:57:36;;;;;;;3.92;1.88;;;;;;;-140.72;100.00;52735.81;5101375;28;20026;-64
2022/09/10 06:00:08;;;;;;;3.13;1.48;;;;;;;-140.72;100.00;52745.97;5096264;28;20350;-64
2022/09/10 06:02:34;;;;;;;5.07;2.35;;;;;;;-140.72;100.00;52735.81;5100797;28;20031;-64
2022/09/10 06:05:00;;;;;;;6.20;2.65;;;;;;;-140.72;100.00;52758.16;5101697;28;20280;-64
2022/09/10 06:07:30;;;;;;;5.60;2.42;;;;;;;-140.72;100.00;52748.00;5098194;27;20489;-64
2022/09/10 06:09:56;;;;;;;;;;;;;;;-140.72;100.00;52731.75;5095452;27;20035;-64
2022/09/10 06:12:22;;;;;;;3.55;1.95;;;;;;;-140.72;100.00;52762.22;5094323;28;19904;-64
2022/09/10 06:14:48;;;;;;;3.53;2.17;;;;;;;-140.72;100.00;52721.63;5098870;28;20086;-64
2022/09/10 06:17:16;;;;;;;6.53;2.17;;;;;;;-140.72;100.00;52748.00;5098471;28;20024;-64
2022/09/10 06:19:43;;;;;;;5.28;1.95;;;;;;;-140.72;100.00;52745.97;5097797;28;20353;-64
2022/09/10 06:22:09;;;;;;;8.63;2.03;;;;;;;-140.72;100.00;52699.31;5095847;28;20422;-64
2022/09/10 06:24:35;;;;;;;3.50;2.40;;;;;;;-140.72;100.00;52687.13;5097182;28;20026;-64
2022/09/10 06:27:01;;;;;;;4.05;2.20;;;;;;;-140.72;100.00;52711.47;5101111;27;20044;-64
2022/09/10 06:29:28;;;;;;;5.32;2.97;;;;;;;-140.72;100.00;52727.72;5096733;28;20461;-64
2022/09/10 06:31:54;;;;;;;12.30;2.75;;;;;;;-140.72;100.00;52723.66;5095091;28;20039;-63
2022/09/10 06:34:19;;;;;;;3.63;1.90;;;;;;;-140.72;100.00;52719.59;5101022;28;20445;-64
2022/09/10 06:36:49;;;;;;;4.57;2.70;;;;;;;-140.72;100.00;52752.06;5103672;27;20019;-64
2022/09/10 06:39:15;;;;;;;;;;;;;;;-140.72;100.00;52679.00;5103815;28;20055;-62
2022/09/10 06:41:41;;;;;;;5.13;2.40;;;;;;;-140.72;100.00;52721.63;5099583;28;19908;-62
2022/09/10 06:44:07;;;;;;;5.45;2.30;;;;;;;-140.72;100.00;52709.44;5097320;28;20107;-63
2022/09/10 06:46:32;;;;;;;3.17;1.55;;;;;;;-140.72;100.00;52679.00;5102665;28;20130;-62
2022/09/10 06:49:01;;;;;;;3.78;1.63;;;;;;;-140.72;100.00;52703.34;5098565;28;20136;-64
2022/09/10 06:51:28;;;;;;;2.08;1.27;;;;;;;-140.72;100.00;52642.47;5097270;27;20042;-64
2022/09/10 06:53:54;;;;;;;2.47;1.30;;;;;;;-140.72;100.00;52683.06;5094190;28;20036;-64
2022/09/10 06:56:19;;;;;;;4.13;1.80;;;;;;;-140.72;100.00;52646.53;5089298;28;20073;-64
2022/09/10 06:58:45;;;;;;;3.15;2.10;;;;;;;-140.72;100.00;52687.13;5098141;28;20376;-62
2022/09/10 07:01:13;;;;;;;3.65;1.70;;;;;;;-140.72;100.00;52691.19;5102492;28;20027;-63
2022/09/10 07:03:40;;;;;;;3.55;1.20;;;;;;;-140.72;100.00;52654.66;5092728;28;20110;-63
2022/09/10 07:06:08;;;;;;;4.82;1.35;;;;;;;-140.72;100.00;52666.84;5095672;28;20473;-62
2022/09/10 07:08:34;;;;;;;2.55;1.17;;;;;;;-140.72;100.00;52699.31;5098726;28;20026;-63
2022/09/10 07:11:02;;;;;;;2.38;1.25;;;;;;;-140.72;100.00;52689.16;5097611;28;20032;-63
2022/09/10 07:13:27;;;;;;;3.30;1.02;;;;;;;-140.72;100.00;52646.53;5096357;28;20024;-63
2022/09/10 07:15:53;;;;;;;2.20;1.27;;;;;;;-140.72;100.00;52638.41;5101322;28;20490;-63
2022/09/10 07:18:18;;;;;;;2.65;1.15;;;;;;;-140.72;100.00;52685.09;5099988;28;20020;-64
2022/09/10 07:20:44;;;;;;;0.95;0.60;;;;;;;-140.72;100.00;52676.97;5095399;28;20030;-64
2022/09/10 07:23:15;;;;;;;2.75;1.00;;;;;;;-140.72;100.00;52674.94;5098161;28;20020;-64
2022/09/10 07:25:40;;;;;;;2.13;0.93;;;;;;;-140.72;100.00;52689.16;5095911;28;20436;-65
2022/09/10 07:28:12;;;;;;;1.65;0.75;;;;;;;-140.72;100.00;52711.47;5097763;28;20047;-64
2022/09/10 07:30:38;;;;;;;3.22;1.25;;;;;;;-140.72;100.00;52676.97;5100989;28;20016;-64
2022/09/10 07:33:04;;;;;;;2.97;0.93;;;;;;;-140.72;100.00;52662.78;5093780;28;20024;-64
2022/09/10 07:35:32;;;;;;;1.63;1.00;;;;;;;-140.72;100.00;52662.78;5094754;28;20031;-64
2022/09/10 07:37:59;;;;;;;1.67;0.88;;;;;;;-140.72;100.00;52691.19;5100829;28;20039;-64
2022/09/10 07:40:27;;;;;;;2.92;0.98;;;;;;;-140.72;100.00;52713.50;5105536;28;20035;-64
2022/09/10 07:42:54;;;;;;;1.70;0.95;;;;;;;-140.72;100.00;52699.31;5104815;28;20030;-64
2022/09/10 07:45:20;;;;;;;1.83;0.80;;;;;;;-140.72;100.00;52691.19;5100261;28;20473;-64
2022/09/10 07:47:46;;;;;;;1.27;0.77;;;;;;;-140.72;100.00;52666.84;5099001;27;20043;-64
2022/09/10 07:50:13;;;;;;;0.90;0.40;;;;;;;-140.72;100.00;52666.84;5104718;27;20039;-65
2022/09/10 07:52:39;;;;;;;0.30;0.30;;;;;;;-140.72;100.00;52662.78;5097695;28;20036;-65
2022/09/10 07:55:05;;;;;;;2.03;0.63;;;;;;;-140.72;100.00;52648.56;5099444;28;20030;-65
2022/09/10 07:57:33;;;;;;;0.40;0.25;;;;;;;-140.72;100.00;52666.84;5105431;27;20341;-63
2022/09/10 07:59:59;;;;;;;1.05;0.45;;;;;;;-140.72;100.00;52664.81;5101856;28;20127;-64
2022/09/10 08:02:25;;;;;;;3.65;0.50;;;;;;;-140.72;100.00;52668.84;5095694;28;20028;-64
2022/09/10 08:04:50;;;;;;;0.75;0.30;;;;;;;-140.72;100.00;52652.63;5103580;27;20032;-73
2022/09/10 08:07:16;;;;;;;1.52;0.47;;;;;;;-140.72;100.00;52648.56;5109771;27;20293;-73
2022/09/10 08:09:42;;;;;;;2.13;0.60;;;;;;;-140.72;100.00;52654.66;5100646;27;20024;-73
2022/09/10 08:12:07;;;;;;;0.90;0.35;;;;;;;-140.72;100.00;52646.53;5101432;28;20023;-73
2022/09/10 08:14:33;;;;;;;4.40;2.58;;;;;;;-140.72;100.00;52628.28;5106451;27;20052;-72
2022/09/10 08:16:59;;;;;;;6.45;4.60;;;;;;;-140.72;100.00;52703.34;5096313;28;20115;-73
2022/09/10 08:19:25;;;;;;;4.80;3.75;;;;;;;-140.72;100.00;52707.41;5102213;27;20067;-70
2022/09/10 08:21:50;;;;;;;7.07;4.57;;;;;;;-140.72;100.00;52693.22;5105480;28;20028;-71
2022/09/10 08:24:16;;;;;;;6.72;5.13;;;;;;;-140.72;100.00;52674.94;5099797;28;20381;-73
2022/09/10 08:26:41;;;;;;;7.90;4.50;;;;;;;-140.72;100.00;52705.38;5103805;28;20353;-72
2022/09/10 08:29:07;;;;;;;8.63;5.55;;;;;;;-140.72;100.00;52634.38;5110966;27;20414;-72
2022/09/10 08:31:33;;;;;;;10.05;6.47;;;;;;;-140.72;100.00;52646.53;5099987;27;20146;-73
2022/09/10 08:33:59;;;;;;;9.63;5.93;;;;;;;-140.72;100.00;52674.94;5099565;28;20471;-73
2022/09/10 08:36:25;;;;;;;8.25;5.38;;;;;;;-140.72;100.00;52622.19;5096373;28;20051;-73
2022/09/10 08:38:52;;;;;;;8.63;5.97;;;;;;;-140.72;100.00;52648.56;5097440;28;20045;-70
2022/09/10 08:41:52;;;;;;;8.65;4.75;;;;;;;-140.72;100.00;52632.34;5097457;28;20496;-72
2022/09/10 08:44:26;;;;;;;8.07;5.20;;;;;;;-140.72;100.00;52662.78;5076396;28;20032;-72
2022/09/10 08:47:25;;;;;;;13.30;5.20;;;;;;;-140.72;100.00;52630.31;5103454;28;20160;-72
2022/09/10 08:49:55;;;;;;;12.57;6.30;;;;;;;-140.72;100.00;52620.16;5097521;28;20043;-71
2022/09/10 08:52:20;;;;;;;;;;;;;;;-140.72;100.00;52687.13;5101144;27;20028;-72
2022/09/10 08:55:12;;;;;;;8.97;5.83;;;;;;;-140.72;100.00;52646.53;5104450;28;19914;-71
2022/09/10 08:57:44;;;;;;;8.68;6.38;;;;;;;-140.72;100.00;52666.84;5102264;28;20265;-70
2022/09/10 09:00:32;;;;;;;8.23;6.13;;;;;;;-140.72;100.00;52603.94;5098248;28;20509;-74
2022/09/10 09:03:10;;;;;;;9.75;5.45;;;;;;;-140.72;100.00;52624.22;5090584;28;20043;-72
2022/09/10 09:05:45;;;;;;;8.60;6.18;;;;;;;-140.72;100.00;52599.88;5102523;28;20298;-73
2022/09/10 09:08:17;;;;;;;9.75;6.57;;;;;;;-140.72;100.00;52632.34;5101734;28;20054;-73
2022/09/10 09:10:49;;;;;;;7.43;5.80;;;;;;;-140.72;100.00;52601.91;5093507;28;20020;-72
2022/09/10 09:13:21;;;;;;;9.30;7.18;;;;;;;-140.72;100.00;52628.28;5101607;28;20177;-72
2022/09/10 09:16:08;;;;;;;7.63;5.57;;;;;;;-140.72;100.00;52587.69;5094935;28;20064;-72
2022/09/10 09:19:04;;;;;;;7.65;5.60;;;;;;;-140.72;100.00;52585.66;5096057;28;20503;-73
2022/09/10 09:21:44;;;;;;;6.55;3.90;;;;;;;-140.72;100.00;52605.94;5099025;27;20027;-73
2022/09/10 09:24:30;;;;;;;;;;;;;;;-140.72;100.00;52614.06;5093534;28;20035;-75
2022/09/10 09:27:08;;;;;;;3.88;2.65;;;;;;;-140.72;100.00;52561.31;5089004;28;19922;-75
2022/09/10 09:29:42;;;;;;;6.15;3.33;;;;;;;-140.72;100.00;52553.19;5098369;28;20099;-72
2022/09/10 09:32:14;;;;;;;4.88;2.85;;;;;;;-140.72;100.00;52547.09;5097641;28;20020;-74
2022/09/10 09:34:45;;;;;;;9.20;3.70;;;;;;;-140.72;100.00;52581.59;5102011;27;20037;-74
2022/09/10 09:37:16;;;;;;;5.15;3.17;;;;;;;-140.72;100.00;52549.13;5093623;28;20103;-73
2022/09/10 09:39:47;;;;;;;5.95;3.42;;;;;;;-140.72;100.00;52557.25;5094201;28;20096;-73
2022/09/10 09:42:37;;;;;;;5.93;3.40;;;;;;;-140.72;100.00;52557.25;5096555;28;20085;-74
2022/09/10 09:45:20;;;;;;;;;;;;;;;-140.72;100.00;52593.78;5098349;28;20027;-72
2022/09/10 09:47:46;;;;;;;3.72;2.53;;;;;;;-140.72;100.00;52612.03;5096550;28;20313;-73
2022/09/10 09:50:12;;;;;;;4.57;2.38;;;;;;;-140.72;100.00;52614.06;5101625;28;20069;-76
2022/09/10 09:52:40;;;;;;;3.67;2.58;;;;;;;-140.72;100.00;52585.66;5105342;27;20051;-76
2022/09/10 09:55:16;;;;;;;3.28;2.53;;;;;;;-140.72;100.00;52549.13;5092767;28;20059;-72
2022/09/10 09:57:42;;;;;;;6.40;2.88;;;;;;;-140.72;100.00;52536.97;5100035;28;20026;-71
2022/09/10 10:00:35;;;;;;;5.05;2.40;;;;;;;-140.72;100.00;52488.25;5106388;27;20024;-73
2022/09/10 10:03:19;;;;;;;3.45;2.08;;;;;;;-140.72;100.00;52508.56;5086757;28;20031;-74
2022/09/10 10:05:47;;;;;;;3.40;2.42;;;;;;;-140.72;100.00;52516.66;5101469;28;20077;-73
2022/09/10 10:08:29;;;;;;;3.88;2.22;;;;;;;-140.72;100.00;52559.28;5101131;28;20207;-71
2022/09/10 10:10:56;;;;;;;2.95;2.17;;;;;;;-140.72;100.00;52561.31;5095912;28;20142;-71
2022/09/10 10:13:22;;;;;;;2.38;1.83;;;;;;;-140.72;100.00;52467.97;5102558;27;20020;-72
2022/09/10 10:15:49;;;;;;;4.25;1.58;;;;;;;-140.72;100.00;52484.19;5091077;28;20031;-74
2022/09/10 10:18:20;;;;;;;2.63;1.90;;;;;;;-140.72;100.00;52567.41;5096173;28;20031;-73
2022/09/10 10:20:45;;;;;;;2.88;1.45;;;;;;;-140.72;100.00;52524.78;5102675;28;20365;-71
2022/09/10 10:23:36;;;;;;;2.92;2.00;;;;;;;-140.72;100.00;52484.19;5099875;28;20130;-72
2022/09/10 10:26:34;;;;;;;2.00;1.58;;;;;;;-140.72;100.00;52480.16;5106351;27;20015;-74
2022/09/10 10:29:05;;;;;;;3.13;1.42;;;;;;;-140.72;100.00;52421.28;5091190;27;20048;-74
2022/09/10 10:31:35;;;;;;;2.95;1.63;;;;;;;-140.72;100.00;52413.19;5096389;28;20062;-74
2022/09/10 10:34:15;;;;;;;2.25;1.08;;;;;;;-140.72;100.00;52465.94;5105734;28;20069;-73
2022/09/10 10:37:14;;;;;;;1.60;1.00;;;;;;;-140.72;100.00;52520.72;5096215;28;20118;-72
2022/09/10 10:39:40;;;;;;;1.92;1.35;;;;;;;-140.72;100.00;52545.06;5099474;28;20027;-74
2022/09/10 10:42:19;;;;;;;4.10;1.30;;;;;;;-140.72;100.00;52534.94;5102995;28;20385;-73
2022/09/10 10:45:14;;;;;;;3.58;1.77;;;;;;;-140.72;100.00;52557.25;5104136;27;20389;-71
2022/09/10 10:48:08;;;;;;;2.30;1.63;;;;;;;-140.72;100.00;52522.75;5091955;28;20081;-72
2022/09/10 10:50:42;;;;;;;3.30;1.90;;;;;;;-140.72;100.00;52561.31;5094462;28;20031;-73
2022/09/10 10:53:21;;;;;;;3.58;2.17;;;;;;;-140.72;100.00;52601.91;5099154;27;20050;-72
2022/09/10 10:55:58;;;;;;;3.17;2.47;;;;;;;-140.72;100.00;52595.81;5102041;28;20020;-71
2022/09/10 10:59:08;;;;;;;4.65;3.45;;;;;;;-140.72;100.00;52484.19;5095009;28;20036;-72
2022/09/10 11:01:41;;;;;;;5.80;2.60;;;;;;;-140.72;100.00;52403.03;5094050;28;20032;-72
2022/09/10 11:04:30;;;;;;;3.17;2.25;;;;;;;-140.72;100.00;52352.31;5096771;28;20100;-72
2022/09/10 11:07:13;;;;;;;3.72;2.35;;;;;;;-140.72;100.00;52277.22;5093436;28;20045;-73
2022/09/10 11:10:10;;;;;;;3.53;1.75;;;;;;;-140.72;100.00;52401.00;5101085;28;20027;-72
2022/09/10 11:13:01;;;;;;;4.47;2.10;;;;;;;-140.72;100.00;52325.94;5100600;28;20385;-72
2022/09/10 11:16:04;;;;;;;2.35;1.10;;;;;;;-140.72;100.00;52236.66;5096164;28;20044;-72
2022/09/10 11:18:32;;;;;;;3.92;1.10;;;;;;;-140.72;91.81;52206.22;5098590;28;20454;-62
2022/09/10 11:21:23;;;;;;;3.20;1.00;;;;;;;-140.72;0.00;52354.34;5093183;28;20123;-63
2022/09/10 11:24:07;;;;;;;0.88;0.50;;;;;;;-140.72;0.00;52392.88;5097742;28;20492;-63